sensor_id;sensor_type;location;lat;lon;timestamp;pressure;altitude;pressure_sealevel;temperature;humidity
51972;BME280;37991;49.662;10.060;2022-10-31T00:01:59;99778.81;;;9.63;100.00
51972;BME280;37991;49.662;10.060;2022-10-31T00:04:24;99784.91;;;9.64;100.00
51972;BME280;37991;49.662;10.060;2022-10-31T00:06:49;99781.72;;;9.59;100.00
51972;BME280;37991;49.662;10.060;2022-10-31T00:09:15;99781.34;;;9.65;100.00
51972;BME280;37991;49.662;10.060;2022-10-31T00:11:40;99784.13;;;9.62;100.00
51972;BME280;37991;49.662;10.060;2022-10-31T00:14:05;99780.09;;;9.56;100.00
51972;BME280;37991;49.662;10.060;2022-10-31T00:16:31;99777.59;;;9.54;100.00
51972;BME280;37991;49.662;10.060;2022-10-31T00:18:59;99789.84;;;9.54;100.00
51972;BME280;37991;49.662;10.060;2022-10-31T00:21:25;99784.69;;;9.52;100.00
51972;BME280;37991;49.662;10.060;2022-10-31T00:23:51;99784.97;;;9.48;100.00
51972;BME280;37991;49.662;10.060;2022-10-31T00:26:17;99790.25;;;9.46;100.00
51972;BME280;37991;49.662;10.060;2022-10-31T00:28:43;99786.72;;;9.47;100.00
51972;BME280;37991;49.662;10.060;2022-10-31T00:31:10;99786.47;;;9.52;100.00
51972;BME280;37991;49.662;10.060;2022-10-31T00:33:37;99787.41;;;9.51;100.00
51972;BME280;37991;49.662;10.060;2022-10-31T00:36:04;99789.06;;;9.52;100.00
51972;BME280;37991;49.662;10.060;2022-10-31T00:38:31;99786.63;;;9.49;100.00
51972;BME280;37991;49.662;10.060;2022-10-31T00:40:57;99781.09;;;9.39;100.00
51972;BME280;37991;49.662;10.060;2022-10-31T00:43:22;99782.88;;;9.39;100.00
51972;BME280;37991;49.662;10.060;2022-10-31T00:45:48;99786.50;;;9.36;100.00
51972;BME280;37991;49.662;10.060;2022-10-31T00:48:13;99795.72;;;9.27;100.00
51972;BME280;37991;49.662;10.060;2022-10-31T00:50:39;99796.66;;;9.26;100.00
51972;BME280;37991;49.662;10.060;2022-10-31T00:53:05;99793.94;;;9.28;100.00
51972;BME280;37991;49.662;10.060;2022-10-31T00:55:30;99792.44;;;9.24;100.00
51972;BME280;37991;49.662;10.060;2022-10-31T00:57:56;99784.09;;;9.17;100.00
51972;BME280;37991;49.662;10.060;2022-10-31T01:00:22;99790.34;;;9.15;100.00
51972;BME280;37991;49.662;10.060;2022-10-31T01:02:48;99787.06;;;9.11;100.00
51972;BME280;37991;49.662;10.060;2022-10-31T01:05:13;99791.19;;;9.15;100.00
51972;BME280;37991;49.662;10.060;2022-10-31T01:07:40;99786.41;;;9.07;100.00
51972;BME280;37991;49.662;10.060;2022-10-31T01:10:09;99784.81;;;9.05;100.00
51972;BME280;37991;49.662;10.060;2022-10-31T01:12:39;99785.75;;;9.04;100.00
51972;BME280;37991;49.662;10.060;2022-10-31T01:15:06;99782.28;;;9.03;100.00
51972;BME280;37991;49.662;10.060;2022-10-31T01:17:34;99794.25;;;9.07;100.00
51972;BME280;37991;49.662;10.060;2022-10-31T01:19:59;99785.63;;;9.05;100.00
51972;BME280;37991;49.662;10.060;2022-10-31T01:22:26;99787.41;;;9.05;100.00
51972;BME280;37991;49.662;10.060;2022-10-31T01:24:52;99783.47;;;8.98;100.00
51972;BME280;37991;49.662;10.060;2022-10-31T01:27:18;99786.91;;;8.98;100.00
51972;BME280;37991;49.662;10.060;2022-10-31T01:29:44;99785.31;;;8.96;100.00
51972;BME280;37991;49.662;10.060;2022-10-31T01:32:10;99777.41;;;8.97;100.00
51972;BME280;37991;49.662;10.060;2022-10-31T01:34:35;99779.34;;;8.94;100.00
51972;BME280;37991;49.662;10.060;2022-10-31T01:37:01;99778.66;;;8.90;100.00
51972;BME280;37991;49.662;10.060;2022-10-31T01:39:26;99780.69;;;8.85;100.00
51972;BME280;37991;49.662;10.060;2022-10-31T01:41:52;99785.16;;;8.83;100.00
51972;BME280;37991;49.662;10.060;2022-10-31T01:46:48;99768.16;;;8.76;100.00
51972;BME280;37991;49.662;10.060;2022-10-31T01:51:52;99764.59;;;8.77;100.00
51972;BME280;37991;49.662;10.060;2022-10-31T01:54:21;99762.16;;;8.74;100.00
51972;BME280;37991;49.662;10.060;2022-10-31T01:56:50;99768.31;;;8.73;100.00
51972;BME280;37991;49.662;10.060;2022-10-31T01:59:19;99770.50;;;8.65;100.00
51972;BME280;37991;49.662;10.060;2022-10-31T02:01:47;99766.31;;;8.62;100.00
51972;BME280;37991;49.662;10.060;2022-10-31T02:04:13;99767.88;;;8.65;100.00
51972;BME280;37991;49.662;10.060;2022-10-31T02:06:53;99775.81;;;8.63;100.00
51972;BME280;37991;49.662;10.060;2022-10-31T02:09:19;99772.38;;;8.63;100.00
51972;BME280;37991;49.662;10.060;2022-10-31T02:11:51;99769.94;;;8.59;100.00
51972;BME280;37991;49.662;10.060;2022-10-31T02:14:17;99769.59;;;8.50;100.00
51972;BME280;37991;49.662;10.060;2022-10-31T02:16:43;99757.38;;;8.50;100.00
51972;BME280;37991;49.662;10.060;2022-10-31T02:19:14;99771.09;;;8.54;100.00
51972;BME280;37991;49.662;10.060;2022-10-31T02:21:58;99774.72;;;8.51;100.00
51972;BME280;37991;49.662;10.060;2022-10-31T02:35:00;99775.31;;;8.41;100.00
51972;BME280;37991;49.662;10.060;2022-10-31T02:40:27;99777.91;;;8.41;100.00
51972;BME280;37991;49.662;10.060;2022-10-31T02:46:13;99771.75;;;8.42;100.00
51972;BME280;37991;49.662;10.060;2022-10-31T02:48:41;99771.94;;;8.38;100.00
51972;BME280;37991;49.662;10.060;2022-10-31T02:51:09;99765.00;;;8.37;100.00
51972;BME280;37991;49.662;10.060;2022-10-31T02:53:37;99770.38;;;8.34;100.00
51972;BME280;37991;49.662;10.060;2022-10-31T02:56:12;99768.53;;;8.36;100.00
51972;BME280;37991;49.662;10.060;2022-10-31T02:58:42;99766.16;;;8.32;100.00
51972;BME280;37991;49.662;10.060;2022-10-31T03:01:25;99766.25;;;8.30;100.00
51972;BME280;37991;49.662;10.060;2022-10-31T03:12:29;99765.59;;;8.27;100.00
51972;BME280;37991;49.662;10.060;2022-10-31T03:17:31;99773.59;;;8.24;100.00
51972;BME280;37991;49.662;10.060;2022-10-31T03:20:00;99764.91;;;8.23;100.00
51972;BME280;37991;49.662;10.060;2022-10-31T03:22:29;99767.75;;;8.19;100.00
51972;BME280;37991;49.662;10.060;2022-10-31T03:25:00;99764.22;;;8.20;100.00
51972;BME280;37991;49.662;10.060;2022-10-31T03:27:29;99766.31;;;8.13;100.00
51972;BME280;37991;49.662;10.060;2022-10-31T03:30:01;99767.50;;;8.07;100.00
51972;BME280;37991;49.662;10.060;2022-10-31T03:32:52;99776.06;;;8.09;100.00
51972;BME280;37991;49.662;10.060;2022-10-31T03:35:23;99777.06;;;8.07;100.00
51972;BME280;37991;49.662;10.060;2022-10-31T03:37:49;99776.16;;;8.08;100.00
51972;BME280;37991;49.662;10.060;2022-10-31T03:40:19;99778.31;;;8.00;100.00
51972;BME280;37991;49.662;10.060;2022-10-31T03:42:54;99780.94;;;8.00;100.00
51972;BME280;37991;49.662;10.060;2022-10-31T03:45:25;99777.22;;;8.04;100.00
51972;BME280;37991;49.662;10.060;2022-10-31T03:47:52;99779.84;;;8.04;100.00
51972;BME280;37991;49.662;10.060;2022-10-31T03:50:19;99781.59;;;8.03;100.00
51972;BME280;37991;49.662;10.060;2022-10-31T03:52:57;99780.19;;;7.98;100.00
51972;BME280;37991;49.662;10.060;2022-10-31T03:58:08;99795.22;;;7.92;100.00
51972;BME280;37991;49.662;10.060;2022-10-31T04:00:39;99792.78;;;7.89;100.00
51972;BME280;37991;49.662;10.060;2022-10-31T04:03:12;99785.09;;;7.86;100.00
51972;BME280;37991;49.662;10.060;2022-10-31T04:05:45;99787.63;;;7.88;100.00
51972;BME280;37991;49.662;10.060;2022-10-31T04:08:15;99783.44;;;7.85;100.00
51972;BME280;37991;49.662;10.060;2022-10-31T04:10:43;99791.25;;;7.85;100.00
51972;BME280;37991;49.662;10.060;2022-10-31T04:13:15;99792.09;;;7.86;100.00
51972;BME280;37991;49.662;10.060;2022-10-31T04:15:51;99792.84;;;7.88;100.00
51972;BME280;37991;49.662;10.060;2022-10-31T04:18:17;99786.88;;;7.86;100.00
51972;BME280;37991;49.662;10.060;2022-10-31T04:20:43;99789.31;;;7.89;100.00
51972;BME280;37991;49.662;10.060;2022-10-31T04:23:18;99784.09;;;7.89;100.00
51972;BME280;37991;49.662;10.060;2022-10-31T04:25:44;99785.41;;;7.98;100.00
51972;BME280;37991;49.662;10.060;2022-10-31T04:28:10;99788.34;;;7.91;100.00
51972;BME280;37991;49.662;10.060;2022-10-31T04:30:36;99790.84;;;7.93;100.00
51972;BME280;37991;49.662;10.060;2022-10-31T04:33:01;99798.59;;;7.95;100.00
51972;BME280;37991;49.662;10.060;2022-10-31T04:35:26;99797.69;;;7.96;100.00
51972;BME280;37991;49.662;10.060;2022-10-31T04:37:53;99796.06;;;7.93;100.00
51972;BME280;37991;49.662;10.060;2022-10-31T04:40:19;99792.53;;;7.94;100.00
51972;BME280;37991;49.662;10.060;2022-10-31T04:43:02;99790.69;;;7.96;100.00
51972;BME280;37991;49.662;10.060;2022-10-31T04:45:28;99791.84;;;7.90;100.00
51972;BME280;37991;49.662;10.060;2022-10-31T04:47:54;99789.06;;;7.93;100.00
51972;BME280;37991;49.662;10.060;2022-10-31T04:50:19;99793.03;;;8.01;100.00
51972;BME280;37991;49.662;10.060;2022-10-31T04:52:46;99799.13;;;8.01;100.00
51972;BME280;37991;49.662;10.060;2022-10-31T04:55:15;99794.50;;;8.06;100.00
51972;BME280;37991;49.662;10.060;2022-10-31T04:57:49;99791.88;;;8.06;100.00
51972;BME280;37991;49.662;10.060;2022-10-31T05:00:19;99797.56;;;8.14;100.00
51972;BME280;37991;49.662;10.060;2022-10-31T05:02:51;99787.34;;;8.10;100.00
51972;BME280;37991;49.662;10.060;2022-10-31T05:05:19;99783.41;;;8.19;100.00
51972;BME280;37991;49.662;10.060;2022-10-31T05:07:46;99785.03;;;8.21;100.00
51972;BME280;37991;49.662;10.060;2022-10-31T05:10:14;99781.41;;;8.24;100.00
51972;BME280;37991;49.662;10.060;2022-10-31T05:12:48;99774.59;;;8.21;100.00
51972;BME280;37991;49.662;10.060;2022-10-31T05:15:34;99779.38;;;8.29;100.00
51972;BME280;37991;49.662;10.060;2022-10-31T05:18:17;99782.84;;;8.29;100.00
51972;BME280;37991;49.662;10.060;2022-10-31T05:21:14;99768.78;;;8.32;100.00
51972;BME280;37991;49.662;10.060;2022-10-31T05:23:46;99767.09;;;8.31;100.00
51972;BME280;37991;49.662;10.060;2022-10-31T05:26:13;99763.31;;;8.36;100.00
51972;BME280;37991;49.662;10.060;2022-10-31T05:28:39;99769.38;;;8.37;100.00
51972;BME280;37991;49.662;10.060;2022-10-31T05:31:04;99765.09;;;8.36;100.00
51972;BME280;37991;49.662;10.060;2022-10-31T05:33:30;99777.16;;;8.38;100.00
51972;BME280;37991;49.662;10.060;2022-10-31T05:36:02;99769.91;;;8.44;100.00
51972;BME280;37991;49.662;10.060;2022-10-31T05:38:50;99767.81;;;8.50;100.00
51972;BME280;37991;49.662;10.060;2022-10-31T05:41:29;99764.38;;;8.50;100.00
51972;BME280;37991;49.662;10.060;2022-10-31T05:44:03;99762.50;;;8.52;100.00
51972;BME280;37991;49.662;10.060;2022-10-31T05:46:32;99765.97;;;8.52;100.00
51972;BME280;37991;49.662;10.060;2022-10-31T05:49:16;99764.03;;;8.56;100.00
51972;BME280;37991;49.662;10.060;2022-10-31T05:52:01;99764.28;;;8.51;100.00
51972;BME280;37991;49.662;10.060;2022-10-31T05:54:36;99766.88;;;8.51;100.00
51972;BME280;37991;49.662;10.060;2022-10-31T05:57:01;99771.59;;;8.45;100.00
51972;BME280;37991;49.662;10.060;2022-10-31T05:59:26;99774.66;;;8.53;100.00
51972;BME280;37991;49.662;10.060;2022-10-31T06:01:52;99773.66;;;8.55;100.00
51972;BME280;37991;49.662;10.060;2022-10-31T06:04:37;99774.97;;;8.63;100.00
51972;BME280;37991;49.662;10.060;2022-10-31T06:07:03;99761.94;;;8.63;100.00
51972;BME280;37991;49.662;10.060;2022-10-31T06:09:29;99767.16;;;8.63;100.00
51972;BME280;37991;49.662;10.060;2022-10-31T06:11:54;99764.72;;;8.59;100.00
51972;BME280;37991;49.662;10.060;2022-10-31T06:14:22;99773.13;;;8.65;100.00
51972;BME280;37991;49.662;10.060;2022-10-31T06:16:52;99773.03;;;8.66;100.00
51972;BME280;37991;49.662;10.060;2022-10-31T06:19:38;99776.75;;;8.62;100.00
51972;BME280;37991;49.662;10.060;2022-10-31T06:22:04;99778.16;;;8.68;100.00
51972;BME280;37991;49.662;10.060;2022-10-31T06:24:31;99766.88;;;8.67;100.00
51972;BME280;37991;49.662;10.060;2022-10-31T06:27:04;99773.81;;;8.68;100.00
51972;BME280;37991;49.662;10.060;2022-10-31T06:29:30;99772.53;;;8.75;100.00
51972;BME280;37991;49.662;10.060;2022-10-31T06:32:03;99770.94;;;8.73;100.00
51972;BME280;37991;49.662;10.060;2022-10-31T06:34:30;99776.31;;;8.70;100.00
51972;BME280;37991;49.662;10.060;2022-10-31T06:36:56;99779.72;;;8.72;100.00
51972;BME280;37991;49.662;10.060;2022-10-31T06:39:24;99781.38;;;8.73;100.00
51972;BME280;37991;49.662;10.060;2022-10-31T06:41:49;99777.50;;;8.80;100.00
51972;BME280;37991;49.662;10.060;2022-10-31T06:44:18;99774.81;;;8.81;100.00
51972;BME280;37991;49.662;10.060;2022-10-31T06:46:58;99779.38;;;8.78;100.00
51972;BME280;37991;49.662;10.060;2022-10-31T06:49:40;99788.28;;;8.74;100.00
51972;BME280;37991;49.662;10.060;2022-10-31T06:52:14;99789.16;;;8.74;100.00
51972;BME280;37991;49.662;10.060;2022-10-31T06:54:40;99793.16;;;8.80;100.00
51972;BME280;37991;49.662;10.060;2022-10-31T06:57:05;99789.81;;;8.78;100.00
51972;BME280;37991;49.662;10.060;2022-10-31T06:59:31;99797.31;;;8.84;100.00
51972;BME280;37991;49.662;10.060;2022-10-31T07:02:09;99796.09;;;8.90;100.00
51972;BME280;37991;49.662;10.060;2022-10-31T07:04:36;99800.75;;;9.00;100.00
51972;BME280;37991;49.662;10.060;2022-10-31T07:07:01;99799.31;;;8.95;100.00
51972;BME280;37991;49.662;10.060;2022-10-31T07:09:26;99805.88;;;9.02;100.00
51972;BME280;37991;49.662;10.060;2022-10-31T07:11:53;99815.16;;;9.07;100.00
51972;BME280;37991;49.662;10.060;2022-10-31T07:14:19;99811.78;;;9.05;100.00
51972;BME280;37991;49.662;10.060;2022-10-31T07:16:49;99808.44;;;9.03;100.00
51972;BME280;37991;49.662;10.060;2022-10-31T07:19:16;99811.09;;;9.02;100.00
51972;BME280;37991;49.662;10.060;2022-10-31T07:21:41;99805.28;;;9.13;100.00
51972;BME280;37991;49.662;10.060;2022-10-31T07:24:08;99803.41;;;9.15;100.00
51972;BME280;37991;49.662;10.060;2022-10-31T07:26:43;99799.91;;;9.16;100.00
51972;BME280;37991;49.662;10.060;2022-10-31T07:29:12;99801.81;;;9.12;100.00
51972;BME280;37991;49.662;10.060;2022-10-31T07:31:37;99800.59;;;9.03;100.00
51972;BME280;37991;49.662;10.060;2022-10-31T07:34:09;99800.59;;;9.03;100.00
51972;BME280;37991;49.662;10.060;2022-10-31T07:36:53;99794.25;;;9.07;100.00
51972;BME280;37991;49.662;10.060;2022-10-31T07:39:19;99795.69;;;9.13;100.00
51972;BME280;37991;49.662;10.060;2022-10-31T07:41:44;99798.13;;;9.16;100.00
51972;BME280;37991;49.662;10.060;2022-10-31T07:44:10;99801.13;;;9.24;100.00
51972;BME280;37991;49.662;10.060;2022-10-31T07:47:01;99801.13;;;9.24;100.00
51972;BME280;37991;49.662;10.060;2022-10-31T07:49:45;99800.78;;;9.30;100.00
51972;BME280;37991;49.662;10.060;2022-10-31T07:52:37;99797.59;;;9.25;100.00
51972;BME280;37991;49.662;10.060;2022-10-31T07:55:35;99802.31;;;9.19;100.00
51972;BME280;37991;49.662;10.060;2022-10-31T07:58:08;99802.72;;;9.27;100.00
51972;BME280;37991;49.662;10.060;2022-10-31T08:00:39;99808.78;;;9.27;100.00
51972;BME280;37991;49.662;10.060;2022-10-31T08:03:05;99797.72;;;9.38;100.00
51972;BME280;37991;49.662;10.060;2022-10-31T08:05:49;99805.13;;;9.46;100.00
51972;BME280;37991;49.662;10.060;2022-10-31T08:08:31;99800.66;;;9.48;100.00
51972;BME280;37991;49.662;10.060;2022-10-31T08:10:57;99797.28;;;9.46;100.00
51972;BME280;37991;49.662;10.060;2022-10-31T08:13:23;99793.06;;;9.43;100.00
51972;BME280;37991;49.662;10.060;2022-10-31T08:15:50;99804.00;;;9.50;100.00
51972;BME280;37991;49.662;10.060;2022-10-31T08:18:20;99793.38;;;9.53;100.00
51972;BME280;37991;49.662;10.060;2022-10-31T08:20:49;99802.16;;;9.52;100.00
51972;BME280;37991;49.662;10.060;2022-10-31T08:23:14;99802.63;;;9.59;100.00
51972;BME280;37991;49.662;10.060;2022-10-31T08:25:41;99796.88;;;9.68;100.00
51972;BME280;37991;49.662;10.060;2022-10-31T08:28:09;99795.75;;;9.72;100.00
51972;BME280;37991;49.662;10.060;2022-10-31T08:30:37;99792.88;;;9.76;100.00
51972;BME280;37991;49.662;10.060;2022-10-31T08:33:21;99801.19;;;9.83;100.00
51972;BME280;37991;49.662;10.060;2022-10-31T08:36:09;99799.69;;;9.93;100.00
51972;BME280;37991;49.662;10.060;2022-10-31T08:38:52;99793.16;;;9.86;100.00
51972;BME280;37991;49.662;10.060;2022-10-31T08:41:18;99789.06;;;9.96;100.00
51972;BME280;37991;49.662;10.060;2022-10-31T08:43:43;99785.13;;;9.89;100.00
51972;BME280;37991;49.662;10.060;2022-10-31T08:46:10;99786.03;;;9.88;100.00
51972;BME280;37991;49.662;10.060;2022-10-31T08:48:38;99785.13;;;9.89;100.00
51972;BME280;37991;49.662;10.060;2022-10-31T08:51:03;99787.16;;;9.98;100.00
51972;BME280;37991;49.662;10.060;2022-10-31T08:53:29;99786.25;;;9.99;100.00
51972;BME280;37991;49.662;10.060;2022-10-31T08:56:15;99781.28;;;9.95;100.00
51972;BME280;37991;49.662;10.060;2022-10-31T08:58:40;99776.50;;;10.01;100.00
51972;BME280;37991;49.662;10.060;2022-10-31T09:01:07;99781.09;;;10.12;100.00
51972;BME280;37991;49.662;10.060;2022-10-31T09:03:34;99776.16;;;10.22;100.00
51972;BME280;37991;49.662;10.060;2022-10-31T09:06:02;99783.81;;;10.25;100.00
51972;BME280;37991;49.662;10.060;2022-10-31T09:08:32;99771.28;;;10.30;100.00
51972;BME280;37991;49.662;10.060;2022-10-31T09:11:01;99772.69;;;10.36;100.00
51972;BME280;37991;49.662;10.060;2022-10-31T09:14:04;99768.88;;;10.41;100.00
51972;BME280;37991;49.662;10.060;2022-10-31T09:17:02;99767.91;;;10.42;100.00
51972;BME280;37991;49.662;10.060;2022-10-31T09:19:43;99776.97;;;10.51;100.00
51972;BME280;37991;49.662;10.060;2022-10-31T09:22:08;99770.59;;;10.55;100.00
51972;BME280;37991;49.662;10.060;2022-10-31T09:24:34;99768.63;;;10.59;100.00
51972;BME280;37991;49.662;10.060;2022-10-31T09:26:59;99769.00;;;10.67;100.00
51972;BME280;37991;49.662;10.060;2022-10-31T09:29:27;99772.19;;;10.72;100.00
51972;BME280;37991;49.662;10.060;2022-10-31T09:31:57;99776.09;;;10.79;100.00
51972;BME280;37991;49.662;10.060;2022-10-31T09:34:25;99771.47;;;10.83;100.00
51972;BME280;37991;49.662;10.060;2022-10-31T09:37:10;99767.44;;;10.91;100.00
51972;BME280;37991;49.662;10.060;2022-10-31T09:39:36;99766.88;;;10.86;100.00
51972;BME280;37991;49.662;10.060;2022-10-31T09:42:43;99760.28;;;10.93;100.00
51972;BME280;37991;49.662;10.060;2022-10-31T09:45:23;99760.00;;;10.98;100.00
51972;BME280;37991;49.662;10.060;2022-10-31T09:48:14;99753.81;;;10.99;100.00
51972;BME280;37991;49.662;10.060;2022-10-31T09:51:05;99753.28;;;10.94;100.00
51972;BME280;37991;49.662;10.060;2022-10-31T09:53:45;99752.97;;;10.99;100.00
51972;BME280;37991;49.662;10.060;2022-10-31T09:56:18;99748.25;;;11.04;100.00
51972;BME280;37991;49.662;10.060;2022-10-31T09:58:50;99755.94;;;11.07;100.00
51972;BME280;37991;49.662;10.060;2022-10-31T10:04:20;99748.41;;;11.15;100.00
51972;BME280;37991;49.662;10.060;2022-10-31T10:07:21;99747.47;;;11.16;100.00
51972;BME280;37991;49.662;10.060;2022-10-31T10:24:24;99750.34;;;11.38;100.00
51972;BME280;37991;49.662;10.060;2022-10-31T10:29:49;99742.50;;;11.51;100.00
51972;BME280;37991;49.662;10.060;2022-10-31T10:32:27;99732.63;;;11.55;100.00
51972;BME280;37991;49.662;10.060;2022-10-31T10:34:59;99739.56;;;11.56;100.00
51972;BME280;37991;49.662;10.060;2022-10-31T10:37:33;99736.00;;;11.57;100.00
51972;BME280;37991;49.662;10.060;2022-10-31T10:40:13;99737.16;;;11.66;100.00
51972;BME280;37991;49.662;10.060;2022-10-31T10:42:39;99726.13;;;11.73;100.00
51972;BME280;37991;49.662;10.060;2022-10-31T10:45:24;99725.69;;;11.79;100.00
51972;BME280;37991;49.662;10.060;2022-10-31T10:48:35;99716.66;;;11.83;100.00
51972;BME280;37991;49.662;10.060;2022-10-31T10:51:06;99712.94;;;11.88;100.00
51972;BME280;37991;49.662;10.060;2022-10-31T10:56:50;99711.53;;;12.07;100.00
51972;BME280;37991;49.662;10.060;2022-10-31T10:59:19;99704.00;;;12.03;100.00
51972;BME280;37991;49.662;10.060;2022-10-31T11:01:48;99699.78;;;12.13;100.00
51972;BME280;37991;49.662;10.060;2022-10-31T11:04:32;99699.25;;;12.08;100.00
51972;BME280;37991;49.662;10.060;2022-10-31T11:07:00;99702.41;;;12.13;100.00
51972;BME280;37991;49.662;10.060;2022-10-31T11:09:26;99696.94;;;12.16;100.00
51972;BME280;37991;49.662;10.060;2022-10-31T11:11:52;99688.63;;;12.22;100.00
51972;BME280;37991;49.662;10.060;2022-10-31T11:14:17;99694.47;;;12.26;100.00
51972;BME280;37991;49.662;10.060;2022-10-31T11:16:46;99680.47;;;12.38;100.00
51972;BME280;37991;49.662;10.060;2022-10-31T11:21:42;99676.75;;;12.41;100.00
51972;BME280;37991;49.662;10.060;2022-10-31T11:24:12;99677.31;;;12.33;100.00
51972;BME280;37991;49.662;10.060;2022-10-31T11:26:41;99674.47;;;12.36;100.00
51972;BME280;37991;49.662;10.060;2022-10-31T11:29:20;99672.84;;;12.46;100.00
51972;BME280;37991;49.662;10.060;2022-10-31T11:31:47;99671.81;;;12.49;100.00
51972;BME280;37991;49.662;10.060;2022-10-31T11:34:26;99673.88;;;12.56;100.00
51972;BME280;37991;49.662;10.060;2022-10-31T11:36:53;99665.91;;;12.69;100.00
51972;BME280;37991;49.662;10.060;2022-10-31T11:39:23;99656.06;;;12.60;100.00
51972;BME280;37991;49.662;10.060;2022-10-31T11:41:51;99652.75;;;12.58;100.00
51972;BME280;37991;49.662;10.060;2022-10-31T11:44:20;99652.28;;;12.64;100.00
51972;BME280;37991;49.662;10.060;2022-10-31T11:46:55;99647.41;;;12.71;100.00
51972;BME280;37991;49.662;10.060;2022-10-31T11:49:30;99645.72;;;12.70;100.00
51972;BME280;37991;49.662;10.060;2022-10-31T11:51:58;99638.41;;;12.62;100.00
51972;BME280;37991;49.662;10.060;2022-10-31T11:54:31;99637.22;;;12.66;100.00
51972;BME280;37991;49.662;10.060;2022-10-31T11:56:58;99637.97;;;12.68;100.00
51972;BME280;37991;49.662;10.060;2022-10-31T11:59:29;99627.25;;;12.83;100.00
51972;BME280;37991;49.662;10.060;2022-10-31T12:01:56;99631.81;;;12.80;100.00
51972;BME280;37991;49.662;10.060;2022-10-31T12:04:58;99623.91;;;12.80;100.00
51972;BME280;37991;49.662;10.060;2022-10-31T12:07:26;99622.72;;;12.85;100.00
51972;BME280;37991;49.662;10.060;2022-10-31T12:09:51;99622.63;;;12.86;100.00
51972;BME280;37991;49.662;10.060;2022-10-31T12:18:17;99601.28;;;13.02;100.00
51972;BME280;37991;49.662;10.060;2022-10-31T12:37:15;99576.75;;;13.01;100.00
51972;BME280;37991;49.662;10.060;2022-10-31T12:40:06;99582.00;;;13.01;100.00
51972;BME280;37991;49.662;10.060;2022-10-31T12:45:51;99571.84;;;12.97;100.00
51972;BME280;37991;49.662;10.060;2022-10-31T12:48:46;99564.06;;;12.95;100.00
51972;BME280;37991;49.662;10.060;2022-10-31T12:51:24;99548.91;;;13.10;100.00
51972;BME280;37991;49.662;10.060;2022-10-31T12:54:39;99546.38;;;12.97;100.00
51972;BME280;37991;49.662;10.060;2022-10-31T12:59:57;99536.13;;;13.06;100.00
51972;BME280;37991;49.662;10.060;2022-10-31T13:05:04;99519.97;;;13.10;100.00
51972;BME280;37991;49.662;10.060;2022-10-31T13:07:46;99528.22;;;13.17;100.00
51972;BME280;37991;49.662;10.060;2022-10-31T13:12:43;99525.06;;;13.24;100.00
51972;BME280;37991;49.662;10.060;2022-10-31T13:15:21;99517.84;;;13.26;100.00
51972;BME280;37991;49.662;10.060;2022-10-31T13:17:56;99522.19;;;13.28;100.00
51972;BME280;37991;49.662;10.060;2022-10-31T13:20:32;99513.31;;;13.29;100.00
51972;BME280;37991;49.662;10.060;2022-10-31T13:23:09;99510.78;;;13.27;100.00
51972;BME280;37991;49.662;10.060;2022-10-31T13:25:40;99503.53;;;13.31;100.00
51972;BME280;37991;49.662;10.060;2022-10-31T13:30:51;99490.97;;;13.34;100.00
51972;BME280;37991;49.662;10.060;2022-10-31T13:33:21;99488.31;;;13.34;100.00
51972;BME280;37991;49.662;10.060;2022-10-31T13:38:35;99477.47;;;13.28;100.00
51972;BME280;37991;49.662;10.060;2022-10-31T13:41:30;99474.16;;;13.24;100.00
51972;BME280;37991;49.662;10.060;2022-10-31T13:44:10;99472.44;;;13.24;100.00
51972;BME280;37991;49.662;10.060;2022-10-31T13:46:39;99473.13;;;13.26;100.00
51972;BME280;37991;49.662;10.060;2022-10-31T13:49:24;99471.34;;;13.27;100.00
51972;BME280;37991;49.662;10.060;2022-10-31T13:51:50;99470.63;;;13.25;100.00
51972;BME280;37991;49.662;10.060;2022-10-31T13:54:33;99460.81;;;13.27;100.00
51972;BME280;37991;49.662;10.060;2022-10-31T13:56:58;99458.19;;;13.27;100.00
51972;BME280;37991;49.662;10.060;2022-10-31T13:59:27;99458.56;;;13.34;100.00
51972;BME280;37991;49.662;10.060;2022-10-31T14:01:58;99458.31;;;13.25;100.00
51972;BME280;37991;49.662;10.060;2022-10-31T14:04:44;99458.38;;;13.24;100.00
51972;BME280;37991;49.662;10.060;2022-10-31T14:07:14;99455.69;;;13.25;100.00
51972;BME280;37991;49.662;10.060;2022-10-31T14:09:56;99451.25;;;13.26;100.00
51972;BME280;37991;49.662;10.060;2022-10-31T14:12:36;99445.38;;;13.22;100.00
51972;BME280;37991;49.662;10.060;2022-10-31T14:15:16;99445.50;;;13.21;100.00
51972;BME280;37991;49.662;10.060;2022-10-31T14:17:48;99450.63;;;13.22;100.00
51972;BME280;37991;49.662;10.060;2022-10-31T14:22:41;99449.81;;;13.22;100.00
51972;BME280;37991;49.662;10.060;2022-10-31T14:25:30;99447.41;;;13.19;100.00
51972;BME280;37991;49.662;10.060;2022-10-31T14:27:56;99450.75;;;13.10;100.00
51972;BME280;37991;49.662;10.060;2022-10-31T14:30:24;99438.22;;;13.13;100.00
51972;BME280;37991;49.662;10.060;2022-10-31T14:32:55;99440.00;;;13.13;100.00
51972;BME280;37991;49.662;10.060;2022-10-31T14:35:36;99436.53;;;13.12;100.00
51972;BME280;37991;49.662;10.060;2022-10-31T14:38:20;99435.22;;;13.18;100.00
51972;BME280;37991;49.662;10.060;2022-10-31T14:41:10;99428.16;;;13.18;100.00
51972;BME280;37991;49.662;10.060;2022-10-31T14:43:56;99426.03;;;13.12;100.00
51972;BME280;37991;49.662;10.060;2022-10-31T14:46:50;99413.81;;;13.11;100.00
51972;BME280;37991;49.662;10.060;2022-10-31T14:49:50;99407.84;;;13.09;100.00
51972;BME280;37991;49.662;10.060;2022-10-31T14:52:20;99405.31;;;13.08;100.00
51972;BME280;37991;49.662;10.060;2022-10-31T14:54:51;99408.81;;;13.08;100.00